Adairsville, GA

10:30 PM EST on January 26, 2015 (GMT -0500)
Richardson Rd. | Change Station
CLOSE
Current Station
Personal Weather Station
Location: Calhoun, GA
Elevation: 689 ft
Nearby Weather Stations
Active Advisory: Winter Weather Advisory

Elev 689 ft 34.46 °N, 84.93 °W | Updated 7 seconds ago

Overcast
Overcast
35.3 °F
Feels Like 35 °F
N
0.0
Wind Variable Wind from North
Gusts 1.0 mph

Today
High -- | Low -- °F
--% Chance of Precip.
Yesterday
High -- | Low -- °F
Precip. -- in
7:41 AM 6:03 PM
Waxing Crescent, 49% visible
Pressure 29.95 in
Visibility 10.0 miles
Clouds Overcast 8000 ft
Windchill 35 °F
Dew Point 30 °F
Humidity 80%
Rainfall 0.00 in
Snow Depth Not available.
UV 0 out of 12
Pollen .30 out of 12
Air Quality Not available.
Flu Activity Not available.
METAR KRMG 270253Z AUTO 02003KT 10SM OVC080 03/M02 A2995 RMK AO2 SLP142 T00281017 58001

More Conditions Fewer Conditions

Pressure 29.95 in
Visibility 10.0 miles
Clouds Overcast 8000 ft
Windchill 35 °F
Dew Point 30 °F
Humidity 80%
Rainfall 0.00 in
Snow Depth Not available.
UV 0 out of 12
Pollen .30 out of 12
Air Quality Not available.
Flu Activity Not available.
METAR KRMG 270253Z AUTO 02003KT 10SM OVC080 03/M02 A2995 RMK AO2 SLP142 T00281017 58001

More Conditions Fewer Conditions

10-Day Weather Forecast

Almanac

Astronomy

Jan. 26, 2015 Rise Set
Actual Time
Civil Twilight
Nautical Twilight
Astronomical Twilight
Moon
Length of Visible Light
Length of Day
Tomorrow will be .
, % of the Moon is Illuminated

Today's Extremes

State Highs State Lows

Community

WunderPhotos

Upload Photos

1,790,502 photos uploaded!

WunderBlogs® & News

Nearby

Air Quality

  Air Quality AQ Index Pollutant
Not available.

Snow Depth

Station Depth Elevation

Earthquake Activity

City Distance Mag. Time & Date
Minimum magnitude displayed is 2.5.

Coastal Water Temperatures

Place Temperature

Nearby Weather Stations